createdAt,value
2023-05-10T00:00:10.217Z,1.13
2023-05-10T00:02:37.184Z,1.10
2023-05-10T00:05:03.762Z,2.03
2023-05-10T00:07:30.352Z,1.42
2023-05-10T00:09:56.838Z,1.55
2023-05-10T00:12:23.172Z,1.40
2023-05-10T00:14:49.547Z,1.55
2023-05-10T00:17:15.953Z,1.13
2023-05-10T00:19:42.289Z,1.25
2023-05-10T00:22:08.673Z,1.48
2023-05-10T00:24:35.078Z,1.50
2023-05-10T00:27:01.601Z,1.40
2023-05-10T00:29:29.266Z,1.50
2023-05-10T00:31:55.844Z,1.80
2023-05-10T00:34:22.244Z,1.63
2023-05-10T00:36:48.607Z,1.60
2023-05-10T00:39:15.120Z,1.60
2023-05-10T00:41:41.476Z,1.73
2023-05-10T00:44:07.842Z,1.42
2023-05-10T00:46:34.383Z,1.48
2023-05-10T00:49:00.851Z,1.88
2023-05-10T00:51:27.241Z,1.98
2023-05-10T00:53:54.010Z,1.85
2023-05-10T00:56:23.821Z,1.80
2023-05-10T00:58:50.850Z,1.42
2023-05-10T01:01:17.476Z,1.45
2023-05-10T01:03:44.671Z,1.50
2023-05-10T01:06:11.246Z,1.75
2023-05-10T01:08:37.907Z,1.70
2023-05-10T01:11:04.316Z,1.38
2023-05-10T01:13:34.673Z,1.73
2023-05-10T01:16:04.111Z,1.80
2023-05-10T01:18:33.859Z,1.73
2023-05-10T01:21:38.593Z,1.20
2023-05-10T01:24:31.835Z,1.50
2023-05-10T01:27:16.653Z,1.63
2023-05-10T01:30:14.763Z,2.00
2023-05-10T01:33:07.449Z,3.40
2023-05-10T01:35:40.942Z,3.13
2023-05-10T01:38:36.362Z,2.88
2023-05-10T01:41:14.536Z,2.85
2023-05-10T01:43:58.597Z,2.40
2023-05-10T01:46:34.200Z,2.33
2023-05-10T01:49:03.332Z,1.85
2023-05-10T01:51:37.234Z,1.90
2023-05-10T01:54:06.142Z,1.80
2023-05-10T01:56:35.873Z,1.88
2023-05-10T01:59:07.838Z,1.73
2023-05-10T02:01:37.610Z,1.98
2023-05-10T02:04:05.716Z,1.88
2023-05-10T02:06:34.092Z,1.85
2023-05-10T02:09:02.175Z,2.17
2023-05-10T02:11:30.473Z,2.00
2023-05-10T02:13:58.773Z,1.77
2023-05-10T02:16:28.025Z,1.58
2023-05-10T02:18:55.573Z,1.70
2023-05-10T02:21:23.205Z,2.08
2023-05-10T02:23:53.052Z,1.88
2023-05-10T02:26:21.936Z,2.10
2023-05-10T02:28:50.015Z,1.70
2023-05-10T02:31:17.811Z,1.88
2023-05-10T02:33:45.689Z,1.83
2023-05-10T02:36:13.587Z,1.65
2023-05-10T02:38:41.443Z,1.90
2023-05-10T02:41:09.440Z,2.05
2023-05-10T02:43:36.555Z,1.60
2023-05-10T02:46:03.397Z,2.03
2023-05-10T02:48:29.911Z,1.80
2023-05-10T02:51:01.370Z,1.58
2023-05-10T02:53:39.478Z,1.67
2023-05-10T02:56:14.377Z,1.92
2023-05-10T02:58:40.803Z,1.67
2023-05-10T03:01:08.625Z,1.98
2023-05-10T03:03:35.108Z,1.83
2023-05-10T03:06:01.665Z,1.85
2023-05-10T03:08:30.272Z,1.88
2023-05-10T03:11:14.744Z,1.58
2023-05-10T03:13:55.965Z,1.65
2023-05-10T03:16:34.203Z,1.90
2023-05-10T03:19:17.287Z,1.80
2023-05-10T03:21:48.715Z,2.10
2023-05-10T03:24:17.354Z,1.67
2023-05-10T03:26:46.534Z,2.03
2023-05-10T03:31:41.457Z,1.90
2023-05-10T03:34:07.993Z,2.33
2023-05-10T03:36:34.471Z,2.35
2023-05-10T03:39:00.795Z,2.55
2023-05-10T03:41:27.220Z,2.65
2023-05-10T03:43:53.582Z,2.72
2023-05-10T03:46:19.997Z,2.70
2023-05-10T03:48:46.435Z,2.75
2023-05-10T03:51:12.783Z,2.88
2023-05-10T03:53:39.117Z,2.88
2023-05-10T03:56:05.845Z,3.50
2023-05-10T03:58:32.187Z,3.22
2023-05-10T04:00:58.583Z,3.28
2023-05-10T04:03:26.754Z,3.08
2023-05-10T04:06:01.905Z,3.17
2023-05-10T04:08:29.012Z,3.17
2023-05-10T04:10:55.402Z,3.55
2023-05-10T04:13:22.164Z,3.45
2023-05-10T04:15:48.587Z,3.50
2023-05-10T04:18:14.871Z,3.30
2023-05-10T04:20:41.219Z,3.83
2023-05-10T04:23:07.554Z,3.22
2023-05-10T04:25:36.398Z,3.15
2023-05-10T04:28:02.887Z,3.42
2023-05-10T04:30:30.185Z,3.75
2023-05-10T04:32:56.615Z,3.13
2023-05-10T04:35:25.317Z,3.28
2023-05-10T04:37:51.644Z,3.15
2023-05-10T04:40:18.317Z,3.03
2023-05-10T04:42:45.070Z,3.10
2023-05-10T04:45:11.689Z,2.92
2023-05-10T04:47:38.251Z,3.00
2023-05-10T04:50:05.494Z,2.97
2023-05-10T04:52:31.873Z,2.90
2023-05-10T04:54:58.178Z,2.88
2023-05-10T04:57:24.519Z,2.85
2023-05-10T04:59:51.939Z,3.38
2023-05-10T05:02:18.388Z,2.95
2023-05-10T05:04:44.686Z,3.28
2023-05-10T05:07:11.096Z,3.28
2023-05-10T05:09:37.514Z,3.42
2023-05-10T05:12:04.138Z,3.47
2023-05-10T05:14:30.506Z,3.25
2023-05-10T05:16:57.420Z,3.22
2023-05-10T05:19:23.797Z,3.10
2023-05-10T05:21:50.134Z,3.45
2023-05-10T05:24:16.432Z,2.78
2023-05-10T05:26:42.784Z,2.80
2023-05-10T05:29:09.285Z,2.90
2023-05-10T05:31:35.704Z,2.67
2023-05-10T05:34:02.117Z,3.08
2023-05-10T05:36:28.463Z,2.80
2023-05-10T05:38:54.931Z,3.28
2023-05-10T05:41:22.381Z,3.10
2023-05-10T05:43:48.733Z,2.88
2023-05-10T05:46:15.354Z,3.08
2023-05-10T05:48:41.887Z,3.30
2023-05-10T05:51:08.237Z,3.45
2023-05-10T05:53:34.906Z,3.47
2023-05-10T05:56:01.308Z,3.15
2023-05-10T05:58:27.866Z,3.35
2023-05-10T06:00:55.564Z,3.35
2023-05-10T06:03:22.045Z,3.47
2023-05-10T06:05:49.221Z,3.40
2023-05-10T06:08:15.875Z,3.47
2023-05-10T06:10:42.249Z,3.33
2023-05-10T06:13:08.596Z,3.80
2023-05-10T06:15:35.559Z,3.70
2023-05-10T06:18:01.981Z,3.50
2023-05-10T06:20:28.604Z,3.80
2023-05-10T06:22:55.048Z,4.18
2023-05-10T06:25:21.463Z,4.10
2023-05-10T06:27:51.103Z,3.95
2023-05-10T06:30:19.897Z,3.75
2023-05-10T06:32:46.809Z,3.83
2023-05-10T06:35:13.273Z,4.18
2023-05-10T06:37:39.796Z,3.75
2023-05-10T06:40:07.250Z,4.68
2023-05-10T06:42:33.608Z,4.28
2023-05-10T06:44:59.894Z,4.57
2023-05-10T06:47:28.529Z,4.22
2023-05-10T06:49:54.880Z,4.30
2023-05-10T06:52:21.332Z,4.65
2023-05-10T06:54:47.820Z,4.50
2023-05-10T06:57:27.628Z,4.32
2023-05-10T06:59:59.455Z,4.22
2023-05-10T07:02:25.845Z,4.82
2023-05-10T07:04:52.932Z,4.43
2023-05-10T07:07:20.004Z,4.78
2023-05-10T07:09:46.495Z,4.55
2023-05-10T07:12:14.670Z,4.47
2023-05-10T07:14:41.892Z,4.55
2023-05-10T07:17:08.392Z,4.25
2023-05-10T07:19:34.787Z,4.47
2023-05-10T07:22:01.078Z,4.25
2023-05-10T07:24:27.421Z,3.72
2023-05-10T07:26:53.815Z,3.10
2023-05-10T07:29:20.239Z,2.75
2023-05-10T07:31:46.709Z,2.92
2023-05-10T07:34:13.383Z,2.90
2023-05-10T07:36:39.706Z,2.28
2023-05-10T07:39:06.216Z,2.50
2023-05-10T07:41:35.085Z,2.67
2023-05-10T07:44:02.154Z,2.60
2023-05-10T07:46:29.409Z,2.70
2023-05-10T07:48:56.066Z,2.65
2023-05-10T07:51:22.563Z,2.35
2023-05-10T07:53:49.137Z,2.65
2023-05-10T07:56:25.751Z,2.60
2023-05-10T07:58:52.822Z,2.00
2023-05-10T08:01:20.792Z,2.13
2023-05-10T08:03:47.360Z,1.95
2023-05-10T08:06:14.399Z,2.40
2023-05-10T08:08:41.049Z,2.03
2023-05-10T08:11:07.752Z,1.92
2023-05-10T08:13:34.377Z,2.13
2023-05-10T08:16:01.569Z,2.20
2023-05-10T08:18:28.395Z,2.10
2023-05-10T08:20:54.937Z,1.70
2023-05-10T08:23:21.589Z,1.77
2023-05-10T08:25:47.928Z,1.92
2023-05-10T08:28:14.270Z,1.77
2023-05-10T08:30:40.736Z,1.92
2023-05-10T08:33:07.249Z,2.30
2023-05-10T08:35:35.314Z,2.33
2023-05-10T08:38:02.071Z,2.13
2023-05-10T08:40:28.472Z,1.80
2023-05-10T08:43:08.135Z,1.98
2023-05-10T08:45:38.640Z,1.95
2023-05-10T08:48:07.419Z,2.05
2023-05-10T08:50:37.605Z,1.92
2023-05-10T08:53:06.893Z,1.77
2023-05-10T08:55:34.392Z,1.70
2023-05-10T08:58:01.315Z,1.73
2023-05-10T09:00:29.559Z,1.52
2023-05-10T09:02:56.115Z,1.50
2023-05-10T09:05:22.568Z,1.20
2023-05-10T09:07:48.975Z,1.35
2023-05-10T09:10:16.195Z,1.30
2023-05-10T09:12:44.958Z,1.50
2023-05-10T09:15:12.251Z,1.70
2023-05-10T09:17:41.326Z,1.40
2023-05-10T09:20:08.224Z,1.65
2023-05-10T09:22:35.426Z,1.92
2023-05-10T09:25:12.580Z,2.28
2023-05-10T09:27:40.816Z,2.30
2023-05-10T09:30:08.965Z,1.88
2023-05-10T09:32:43.272Z,1.70
2023-05-10T09:35:17.965Z,1.58
2023-05-10T09:37:49.670Z,2.30
2023-05-10T09:40:24.780Z,2.10
2023-05-10T09:43:07.320Z,1.58
2023-05-10T09:45:38.256Z,1.85
2023-05-10T09:48:06.189Z,2.33
2023-05-10T09:50:32.646Z,1.73
2023-05-10T09:53:01.161Z,2.17
2023-05-10T09:55:46.736Z,1.42
2023-05-10T09:58:16.489Z,1.60
2023-05-10T10:00:44.671Z,2.15
2023-05-10T10:03:16.341Z,2.25
2023-05-10T10:05:44.561Z,1.63
2023-05-10T10:08:13.928Z,1.90
2023-05-10T10:10:41.505Z,1.77
2023-05-10T10:13:08.820Z,2.33
2023-05-10T10:15:35.737Z,2.10
2023-05-10T10:18:04.458Z,2.28
2023-05-10T10:20:31.079Z,1.75
2023-05-10T10:22:57.500Z,2.05
2023-05-10T10:25:24.368Z,2.15
2023-05-10T10:27:53.693Z,2.40
2023-05-10T10:30:47.616Z,2.25
2023-05-10T10:33:41.947Z,2.00
2023-05-10T10:36:08.613Z,2.10
2023-05-10T10:38:47.773Z,1.88
2023-05-10T10:41:38.430Z,2.13
2023-05-10T10:44:24.437Z,2.63
2023-05-10T10:47:32.372Z,1.90
2023-05-10T10:49:58.709Z,1.88
2023-05-10T10:52:33.649Z,2.60
2023-05-10T10:55:10.219Z,2.15
2023-05-10T10:57:53.094Z,2.58
2023-05-10T11:00:28.034Z,2.10
2023-05-10T11:03:01.906Z,1.25
2023-05-10T11:05:36.113Z,1.83
2023-05-10T11:08:09.748Z,1.55
2023-05-10T11:10:36.312Z,1.58
2023-05-10T11:13:05.165Z,1.92
2023-05-10T11:15:33.140Z,2.28
2023-05-10T11:18:00.120Z,1.42
2023-05-10T11:20:39.248Z,1.60
2023-05-10T11:23:16.829Z,1.45
2023-05-10T11:25:45.176Z,1.08
2023-05-10T11:28:15.397Z,1.35
2023-05-10T11:30:44.114Z,1.17
2023-05-10T11:33:16.067Z,0.93
2023-05-10T11:35:43.670Z,1.63
2023-05-10T11:38:11.717Z,1.40
2023-05-10T11:40:38.940Z,1.30
2023-05-10T11:43:06.601Z,1.20
2023-05-10T11:45:34.472Z,1.10
2023-05-10T11:48:01.745Z,0.75
2023-05-10T11:50:28.796Z,0.90
2023-05-10T11:52:56.391Z,1.30
2023-05-10T11:55:23.478Z,1.20
2023-05-10T11:57:53.198Z,1.17
2023-05-10T12:00:20.154Z,0.98
2023-05-10T12:02:47.165Z,1.17
2023-05-10T12:05:14.346Z,1.10
2023-05-10T12:07:40.785Z,1.23
2023-05-10T12:10:16.464Z,1.15
2023-05-10T12:12:45.098Z,1.10
2023-05-10T12:15:18.014Z,1.42
2023-05-10T12:17:48.633Z,1.05
2023-05-10T12:20:18.901Z,0.93
2023-05-10T12:22:47.882Z,1.15
2023-05-10T12:27:42.701Z,1.33
2023-05-10T12:30:09.623Z,1.20
2023-05-10T12:32:44.811Z,1.13
2023-05-10T12:35:12.285Z,0.90
2023-05-10T12:37:40.127Z,0.90
2023-05-10T12:40:09.325Z,1.02
2023-05-10T12:42:37.000Z,1.17
2023-05-10T12:45:04.759Z,1.30
2023-05-10T12:47:31.225Z,1.17
2023-05-10T12:49:57.741Z,1.58
2023-05-10T12:52:25.207Z,3.83
2023-05-10T12:54:51.576Z,1.02
2023-05-10T12:57:18.018Z,1.10
2023-05-10T12:59:44.457Z,1.10
2023-05-10T13:02:11.208Z,3.75
2023-05-10T13:04:40.640Z,1.17
2023-05-10T13:07:10.869Z,1.52
2023-05-10T13:09:37.252Z,0.90
2023-05-10T13:12:04.004Z,2.45
2023-05-10T13:14:30.830Z,1.20
2023-05-10T13:16:57.243Z,1.30
2023-05-10T13:19:23.808Z,1.20
2023-05-10T13:21:50.356Z,1.42
2023-05-10T13:24:17.921Z,1.60
2023-05-10T13:26:44.536Z,1.40
2023-05-10T13:29:10.997Z,1.80
2023-05-10T13:31:37.550Z,1.33
2023-05-10T13:34:06.351Z,1.00
2023-05-10T13:36:32.797Z,1.30
2023-05-10T13:38:59.212Z,1.10
2023-05-10T13:41:26.107Z,0.93
2023-05-10T13:43:52.510Z,1.15
2023-05-10T13:46:18.999Z,1.42
2023-05-10T13:48:45.400Z,1.17
2023-05-10T13:51:11.752Z,1.10
2023-05-10T13:53:38.104Z,1.38
2023-05-10T13:56:04.526Z,1.00
2023-05-10T13:58:30.844Z,0.98
2023-05-10T14:00:57.221Z,0.88
2023-05-10T14:03:23.654Z,1.10
2023-05-10T14:05:50.063Z,1.10
2023-05-10T14:08:16.648Z,0.98
2023-05-10T14:10:43.053Z,1.00
2023-05-10T14:13:09.482Z,1.00
2023-05-10T14:15:35.910Z,0.93
2023-05-10T14:18:02.592Z,0.70
2023-05-10T14:20:29.213Z,0.68
2023-05-10T14:22:55.661Z,1.10
2023-05-10T14:25:22.015Z,0.90
2023-05-10T14:27:48.810Z,0.98
2023-05-10T14:30:15.810Z,0.90
2023-05-10T14:32:42.339Z,0.80
2023-05-10T14:35:10.689Z,0.75
2023-05-10T14:37:38.661Z,0.70
2023-05-10T14:40:05.788Z,0.80
2023-05-10T14:42:35.001Z,0.80
2023-05-10T14:45:01.408Z,0.70
2023-05-10T14:47:28.146Z,0.80
2023-05-10T14:49:54.511Z,1.02
2023-05-10T14:52:22.044Z,0.82
2023-05-10T14:54:48.703Z,1.10
2023-05-10T14:57:15.125Z,0.80
2023-05-10T14:59:44.312Z,0.85
2023-05-10T15:02:11.735Z,0.75
2023-05-10T15:04:38.701Z,0.65
2023-05-10T15:07:05.614Z,0.65
2023-05-10T15:09:32.036Z,0.68
2023-05-10T15:11:58.558Z,0.65
2023-05-10T15:14:24.973Z,1.10
2023-05-10T15:16:51.344Z,0.80
2023-05-10T15:19:17.911Z,0.70
2023-05-10T15:21:45.449Z,0.70
2023-05-10T15:24:13.464Z,0.88
2023-05-10T15:26:39.765Z,0.80
2023-05-10T15:29:06.172Z,0.80
2023-05-10T15:31:32.856Z,0.95
2023-05-10T15:34:02.080Z,0.60
2023-05-10T15:36:28.430Z,0.70
2023-05-10T15:38:55.735Z,0.52
2023-05-10T15:41:22.357Z,0.80
2023-05-10T15:43:48.689Z,0.52
2023-05-10T15:46:15.327Z,0.70
2023-05-10T15:48:43.387Z,0.95
2023-05-10T15:51:12.444Z,0.93
2023-05-10T15:53:42.533Z,0.70
2023-05-10T15:56:16.164Z,0.60
2023-05-10T15:58:43.837Z,0.65
2023-05-10T16:01:12.094Z,0.75
2023-05-10T16:03:38.585Z,0.60
2023-05-10T16:06:05.319Z,0.50
2023-05-10T16:08:33.475Z,0.93
2023-05-10T16:11:00.649Z,0.80
2023-05-10T16:13:27.250Z,0.60
2023-05-10T16:15:53.765Z,0.60
2023-05-10T16:18:20.324Z,0.70
2023-05-10T16:20:46.864Z,0.60
2023-05-10T16:23:14.912Z,0.65
2023-05-10T16:25:41.904Z,0.80
2023-05-10T16:28:08.247Z,0.80
2023-05-10T16:30:34.672Z,0.80
2023-05-10T16:33:01.743Z,0.82
2023-05-10T16:35:29.805Z,0.80
2023-05-10T16:37:57.205Z,0.77
2023-05-10T16:40:23.961Z,0.60
2023-05-10T16:42:50.533Z,0.75
2023-05-10T16:45:17.341Z,1.00
2023-05-10T16:47:44.151Z,0.80
2023-05-10T16:50:11.418Z,0.80
2023-05-10T16:52:37.908Z,1.10
2023-05-10T16:55:05.130Z,0.82
2023-05-10T16:57:32.846Z,0.90
2023-05-10T16:59:59.255Z,0.90
2023-05-10T17:02:25.715Z,1.00
2023-05-10T17:04:53.070Z,1.00
2023-05-10T17:07:19.571Z,0.80
2023-05-10T17:09:46.548Z,0.90
2023-05-10T17:12:13.049Z,0.88
2023-05-10T17:14:39.904Z,0.90
2023-05-10T17:17:06.874Z,1.08
2023-05-10T17:19:33.514Z,0.82
2023-05-10T17:22:02.232Z,1.10
2023-05-10T17:24:29.742Z,1.55
2023-05-10T17:26:57.299Z,0.90
2023-05-10T17:29:23.814Z,1.02
2023-05-10T17:31:50.248Z,2.65
2023-05-10T17:34:16.574Z,0.98
2023-05-10T17:36:42.916Z,1.02
2023-05-10T17:39:09.301Z,1.17
2023-05-10T17:41:35.638Z,0.73
2023-05-10T17:44:01.988Z,1.60
2023-05-10T17:46:28.358Z,0.95
2023-05-10T17:48:54.764Z,0.80
2023-05-10T17:51:21.139Z,1.10
2023-05-10T17:53:47.587Z,1.10
2023-05-10T17:56:13.989Z,1.00
2023-05-10T17:58:40.613Z,1.02
2023-05-10T18:01:07.470Z,1.02
2023-05-10T18:03:35.973Z,1.30
2023-05-10T18:06:03.220Z,1.02
2023-05-10T18:08:30.453Z,1.20
2023-05-10T18:10:57.440Z,1.00
2023-05-10T18:13:25.403Z,1.00
2023-05-10T18:15:52.272Z,1.05
2023-05-10T18:18:18.702Z,1.35
2023-05-10T18:20:46.198Z,1.00
2023-05-10T18:23:12.961Z,1.42
2023-05-10T18:25:39.305Z,1.10
2023-05-10T18:28:07.722Z,1.05
2023-05-10T18:30:34.044Z,1.17
2023-05-10T18:33:00.528Z,1.38
2023-05-10T18:35:26.978Z,1.17
2023-05-10T18:37:53.330Z,1.00
2023-05-10T18:40:19.706Z,1.05
2023-05-10T18:42:50.037Z,1.55
2023-05-10T18:45:16.700Z,1.27
2023-05-10T18:47:43.289Z,1.20
2023-05-10T18:50:10.294Z,0.95
2023-05-10T18:52:37.281Z,0.77
2023-05-10T18:55:04.227Z,1.00
2023-05-10T18:57:30.860Z,1.00
2023-05-10T18:59:57.844Z,0.82
2023-05-10T19:02:27.197Z,1.05
2023-05-10T19:04:53.768Z,0.90
2023-05-10T19:07:20.254Z,1.38
2023-05-10T19:09:47.295Z,1.38
2023-05-10T19:12:13.628Z,1.10
2023-05-10T19:14:39.963Z,1.00
2023-05-10T19:17:06.468Z,0.93
2023-05-10T19:19:33.213Z,0.82
2023-05-10T19:21:59.559Z,0.95
2023-05-10T19:24:26.373Z,1.27
2023-05-10T19:26:53.132Z,1.00
2023-05-10T19:29:19.631Z,1.15
2023-05-10T19:31:46.104Z,2.40
2023-05-10T19:34:12.753Z,1.35
2023-05-10T19:36:39.079Z,1.35
2023-05-10T19:39:05.418Z,1.88
2023-05-10T19:41:32.011Z,1.10
2023-05-10T19:43:58.438Z,1.15
2023-05-10T19:46:24.940Z,1.10
2023-05-10T19:48:52.174Z,1.15
2023-05-10T19:51:18.539Z,0.98
2023-05-10T19:53:45.073Z,1.27
2023-05-10T19:56:12.717Z,1.13
2023-05-10T19:58:39.290Z,1.05
2023-05-10T20:01:07.434Z,1.38
2023-05-10T20:03:34.828Z,1.00
2023-05-10T20:06:01.822Z,1.15
2023-05-10T20:08:28.982Z,1.20
2023-05-10T20:10:58.739Z,1.00
2023-05-10T20:13:25.113Z,1.20
2023-05-10T20:15:55.670Z,1.13
2023-05-10T20:18:22.444Z,1.17
2023-05-10T20:20:53.712Z,0.98
2023-05-10T20:23:20.252Z,1.25
2023-05-10T20:25:46.852Z,1.77
2023-05-10T20:28:14.591Z,1.60
2023-05-10T20:30:40.956Z,1.38
2023-05-10T20:33:08.145Z,1.55
2023-05-10T20:35:34.743Z,1.27
2023-05-10T20:38:02.038Z,1.30
2023-05-10T20:40:28.488Z,1.27
2023-05-10T20:42:54.880Z,1.35
2023-05-10T20:45:21.465Z,1.48
2023-05-10T20:47:47.875Z,1.27
2023-05-10T20:50:14.287Z,1.23
2023-05-10T20:52:43.724Z,1.30
2023-05-10T20:55:10.113Z,1.50
2023-05-10T20:57:36.639Z,1.40
2023-05-10T21:00:03.787Z,1.50
2023-05-10T21:02:30.278Z,1.30
2023-05-10T21:04:58.001Z,1.00
2023-05-10T21:07:24.881Z,4.85
2023-05-10T21:09:51.267Z,3.70
2023-05-10T21:12:17.812Z,6.43
2023-05-10T21:14:46.502Z,8.00
2023-05-10T21:17:13.722Z,6.80
2023-05-10T21:19:40.349Z,7.45
2023-05-10T21:22:07.700Z,6.30
2023-05-10T21:24:35.053Z,4.63
2023-05-10T21:27:01.678Z,4.65
2023-05-10T21:29:28.508Z,3.75
2023-05-10T21:31:58.513Z,3.25
2023-05-10T21:34:24.898Z,2.65
2023-05-10T21:36:51.300Z,2.65
2023-05-10T21:39:17.642Z,2.30
2023-05-10T21:41:44.000Z,2.65
2023-05-10T21:44:11.344Z,2.72
2023-05-10T21:46:37.735Z,3.00
2023-05-10T21:49:04.296Z,2.97
2023-05-10T21:51:30.764Z,2.58
2023-05-10T21:53:57.250Z,2.78
2023-05-10T21:56:23.602Z,2.95
2023-05-10T21:58:50.177Z,2.83
2023-05-10T22:01:18.347Z,3.15
2023-05-10T22:03:44.795Z,2.05
2023-05-10T22:06:11.241Z,2.85
2023-05-10T22:08:37.583Z,2.50
2023-05-10T22:11:04.012Z,2.10
2023-05-10T22:13:30.451Z,2.22
2023-05-10T22:15:56.893Z,2.10
2023-05-10T22:18:23.235Z,1.73
2023-05-10T22:20:49.621Z,2.03
2023-05-10T22:23:16.000Z,2.00
2023-05-10T22:25:42.341Z,1.77
2023-05-10T22:28:09.106Z,1.80
2023-05-10T22:30:35.520Z,1.48
2023-05-10T22:33:03.264Z,1.75
2023-05-10T22:35:29.705Z,1.63
2023-05-10T22:37:56.274Z,1.65
2023-05-10T22:40:22.696Z,1.85
2023-05-10T22:42:49.192Z,1.38
2023-05-10T22:45:15.580Z,1.58
2023-05-10T22:47:42.061Z,1.52
2023-05-10T22:50:09.148Z,1.40
2023-05-10T22:52:35.593Z,1.77
2023-05-10T22:55:01.994Z,1.88
2023-05-10T22:57:28.379Z,1.90
2023-05-10T22:59:54.745Z,2.15
2023-05-10T23:02:21.203Z,1.85
2023-05-10T23:04:47.607Z,1.85
2023-05-10T23:07:13.933Z,1.70
2023-05-10T23:09:41.430Z,1.73
2023-05-10T23:12:07.788Z,1.60
2023-05-10T23:14:34.121Z,1.88
2023-05-10T23:17:00.465Z,2.20
2023-05-10T23:19:26.882Z,1.58
2023-05-10T23:21:53.325Z,1.92
2023-05-10T23:24:19.656Z,1.70
2023-05-10T23:26:46.469Z,1.75
2023-05-10T23:29:12.833Z,1.73
2023-05-10T23:31:45.187Z,1.90
2023-05-10T23:34:12.240Z,1.85
2023-05-10T23:36:39.247Z,1.90
2023-05-10T23:39:05.774Z,1.58
2023-05-10T23:41:32.310Z,1.60
2023-05-10T23:43:58.590Z,2.33
2023-05-10T23:46:25.066Z,1.95
2023-05-10T23:48:51.544Z,1.98
2023-05-10T23:51:17.981Z,2.10
2023-05-10T23:53:46.937Z,2.08
2023-05-10T23:56:13.398Z,2.13
2023-05-10T23:58:39.731Z,2.03
